createdAt,value
2022-08-23T00:01:51.060Z,36.45
2022-08-23T00:04:23.125Z,35.96
2022-08-23T00:06:59.628Z,36.89
2022-08-23T00:09:27.550Z,36.80
2022-08-23T00:12:04.942Z,36.63
2022-08-23T00:14:34.281Z,36.79
2022-08-23T00:17:12.314Z,36.97
2022-08-23T00:19:58.783Z,36.75
2022-08-23T00:22:25.385Z,36.59
2022-08-23T00:24:51.977Z,36.53
2022-08-23T00:27:18.477Z,36.91
2022-08-23T00:29:53.733Z,36.31
2022-08-23T00:32:26.789Z,36.48
2022-08-23T00:34:53.710Z,37.05
2022-08-23T00:37:21.640Z,37.28
2022-08-23T00:39:48.223Z,37.31
2022-08-23T00:42:50.017Z,35.79
2022-08-23T00:45:51.712Z,37.11
2022-08-23T00:48:18.253Z,37.41
2022-08-23T00:50:53.197Z,36.59
2022-08-23T00:53:23.522Z,36.74
2022-08-23T00:55:53.250Z,37.18
2022-08-23T00:58:21.206Z,37.20
2022-08-23T01:00:50.245Z,37.17
2022-08-23T01:03:17.997Z,37.47
2022-08-23T01:06:11.596Z,36.43
2022-08-23T01:08:41.970Z,37.39
2022-08-23T01:11:16.128Z,36.89
2022-08-23T01:13:47.347Z,37.30
2022-08-23T01:16:33.741Z,36.81
2022-08-23T01:19:02.678Z,37.33
2022-08-23T01:21:41.387Z,36.36
2022-08-23T01:24:10.477Z,37.41
2022-08-23T01:26:48.006Z,37.94
2022-08-23T01:29:16.890Z,37.22
2022-08-23T01:31:43.825Z,37.55
2022-08-23T01:34:13.813Z,37.98
2022-08-23T01:36:43.497Z,37.99
2022-08-23T01:39:10.305Z,37.66
2022-08-23T01:41:38.875Z,37.64
2022-08-23T01:44:06.594Z,37.36
2022-08-23T01:46:33.305Z,37.96
2022-08-23T01:48:59.972Z,38.19
2022-08-23T01:51:26.613Z,38.57
2022-08-23T01:53:53.174Z,37.82
2022-08-23T01:56:21.472Z,37.70
2022-08-23T01:59:05.018Z,38.05
2022-08-23T02:01:31.853Z,37.80
2022-08-23T02:04:04.526Z,38.19
2022-08-23T02:06:32.164Z,37.69
2022-08-23T02:09:01.237Z,38.05
2022-08-23T02:11:38.404Z,38.30
2022-08-23T02:14:08.467Z,37.99
2022-08-23T02:16:43.875Z,37.77
2022-08-23T02:19:25.473Z,38.09
2022-08-23T02:21:53.243Z,38.45
2022-08-23T02:24:22.883Z,38.42
2022-08-23T02:26:56.713Z,38.38
2022-08-23T02:29:25.805Z,38.34
2022-08-23T02:31:52.660Z,37.98
2022-08-23T02:34:20.052Z,38.36
2022-08-23T02:36:47.243Z,38.74
2022-08-23T02:39:18.415Z,38.52
2022-08-23T02:41:44.964Z,37.92
2022-08-23T02:44:12.647Z,38.54
2022-08-23T02:46:40.513Z,38.38
2022-08-23T02:49:07.540Z,38.33
2022-08-23T02:51:34.587Z,38.57
2022-08-23T02:54:01.484Z,38.82
2022-08-23T02:56:28.308Z,38.65
2022-08-23T02:58:55.059Z,39.05
2022-08-23T03:01:28.876Z,38.29
2022-08-23T03:03:56.764Z,39.31
2022-08-23T03:06:24.524Z,39.02
2022-08-23T03:08:53.585Z,38.85
2022-08-23T03:11:21.790Z,38.46
2022-08-23T03:13:49.869Z,38.69
2022-08-23T03:16:17.125Z,38.88
2022-08-23T03:18:44.118Z,38.88
2022-08-23T03:21:11.556Z,39.41
2022-08-23T03:23:39.721Z,38.86
2022-08-23T03:26:09.126Z,38.80
2022-08-23T03:28:37.201Z,38.89
2022-08-23T03:31:04.481Z,38.62
2022-08-23T03:33:31.089Z,39.21
2022-08-23T03:36:02.121Z,38.49
2022-08-23T03:38:28.938Z,39.15
2022-08-23T03:40:55.625Z,38.71
2022-08-23T03:43:22.661Z,39.48
2022-08-23T03:45:49.365Z,38.99
2022-08-23T03:48:16.716Z,38.99
2022-08-23T03:50:43.622Z,38.93
2022-08-23T03:53:12.264Z,38.87
2022-08-23T03:55:42.459Z,38.64
2022-08-23T03:58:10.699Z,39.12
2022-08-23T04:00:37.553Z,39.54
2022-08-23T04:03:05.717Z,39.16
2022-08-23T04:05:32.277Z,39.08
2022-08-23T04:07:59.174Z,39.00
2022-08-23T04:10:25.980Z,38.93
2022-08-23T04:13:04.984Z,38.85
2022-08-23T04:15:31.513Z,39.39
2022-08-23T04:18:02.354Z,39.32
2022-08-23T04:20:29.204Z,39.67
2022-08-23T04:22:56.222Z,40.12
2022-08-23T04:25:34.996Z,40.23
2022-08-23T04:28:03.148Z,40.10
2022-08-23T04:30:30.140Z,40.20
2022-08-23T04:32:57.430Z,39.41
2022-08-23T04:35:25.554Z,39.71
2022-08-23T04:37:52.946Z,40.23
2022-08-23T04:40:37.813Z,39.53
2022-08-23T04:43:04.666Z,40.54
2022-08-23T04:45:32.647Z,40.24
2022-08-23T04:47:59.490Z,40.42
2022-08-23T04:50:26.258Z,40.70
2022-08-23T04:52:52.894Z,40.28
2022-08-23T04:55:19.378Z,40.54
2022-08-23T04:57:46.422Z,40.38
2022-08-23T05:00:14.766Z,40.55
2022-08-23T05:02:41.368Z,40.49
2022-08-23T05:05:11.127Z,40.45
2022-08-23T05:07:42.415Z,40.70
2022-08-23T05:10:13.006Z,40.98
2022-08-23T05:12:40.371Z,40.91
2022-08-23T05:15:09.626Z,40.85
2022-08-23T05:17:36.894Z,41.57
2022-08-23T05:20:05.765Z,41.17
2022-08-23T05:22:39.249Z,40.81
2022-08-23T05:25:06.365Z,41.09
2022-08-23T05:27:33.692Z,41.18
2022-08-23T05:30:00.710Z,41.06
2022-08-23T05:32:31.510Z,40.85
2022-08-23T05:34:59.943Z,40.89
2022-08-23T05:37:26.490Z,40.52
2022-08-23T05:39:53.091Z,40.78
2022-08-23T05:42:19.692Z,40.71
2022-08-23T05:44:46.237Z,40.87
2022-08-23T05:47:15.745Z,41.28
2022-08-23T05:49:43.168Z,41.50
2022-08-23T05:52:12.897Z,41.30
2022-08-23T05:54:39.477Z,40.97
2022-08-23T05:57:06.206Z,41.21
2022-08-23T05:59:33.097Z,41.34
2022-08-23T06:01:59.712Z,40.77
2022-08-23T06:04:26.292Z,41.14
2022-08-23T06:06:53.877Z,41.35
2022-08-23T06:09:20.517Z,41.32
2022-08-23T06:11:48.379Z,40.86
2022-08-23T06:14:15.685Z,41.27
2022-08-23T06:16:45.881Z,41.00
2022-08-23T06:19:13.724Z,41.28
2022-08-23T06:21:41.149Z,41.13
2022-08-23T06:24:08.552Z,41.59
2022-08-23T06:26:39.620Z,41.48
2022-08-23T06:29:12.885Z,41.17
2022-08-23T06:31:48.081Z,40.91
2022-08-23T06:34:18.412Z,40.62
2022-08-23T06:36:47.816Z,40.93
2022-08-23T06:39:16.185Z,40.64
2022-08-23T06:41:43.194Z,41.08
2022-08-23T06:44:10.842Z,40.52
2022-08-23T06:46:38.672Z,40.55
2022-08-23T06:49:07.705Z,40.66
2022-08-23T06:51:36.969Z,40.97
2022-08-23T06:54:08.246Z,40.25
2022-08-23T06:56:37.157Z,40.29
2022-08-23T06:59:06.409Z,40.30
2022-08-23T07:01:47.618Z,39.63
2022-08-23T07:04:21.716Z,40.33
2022-08-23T07:06:48.593Z,40.07
2022-08-23T07:09:15.853Z,39.26
2022-08-23T07:11:42.834Z,39.58
2022-08-23T07:14:12.939Z,38.84
2022-08-23T07:16:48.150Z,38.46
2022-08-23T07:19:15.758Z,37.98
2022-08-23T07:21:43.885Z,37.92
2022-08-23T07:24:13.901Z,37.71
2022-08-23T07:26:42.913Z,37.88
2022-08-23T07:29:11.538Z,37.42
2022-08-23T07:31:45.800Z,37.95
2022-08-23T07:34:12.872Z,37.84
2022-08-23T07:36:42.219Z,37.29
2022-08-23T07:39:10.081Z,36.81
2022-08-23T07:41:38.794Z,37.02
2022-08-23T07:44:08.792Z,36.63
2022-08-23T07:46:37.758Z,37.20
2022-08-23T07:49:05.029Z,37.14
2022-08-23T07:51:33.544Z,36.52
2022-08-23T07:54:02.940Z,36.21
2022-08-23T07:56:29.520Z,35.94
2022-08-23T07:59:00.508Z,35.20
2022-08-23T08:01:30.426Z,35.06
2022-08-23T08:03:59.327Z,34.91
2022-08-23T08:07:04.707Z,35.62
2022-08-23T08:09:35.582Z,35.11
2022-08-23T08:12:02.129Z,34.72
2022-08-23T08:14:28.714Z,33.90
2022-08-23T08:16:58.612Z,34.37
2022-08-23T08:19:25.476Z,34.23
2022-08-23T08:21:52.095Z,34.57
2022-08-23T08:24:19.168Z,33.88
2022-08-23T08:26:46.565Z,34.21
2022-08-23T08:29:14.262Z,34.05
2022-08-23T08:31:44.080Z,33.91
2022-08-23T08:34:11.203Z,33.98
2022-08-23T08:36:49.314Z,34.10
2022-08-23T08:39:19.961Z,34.02
2022-08-23T08:42:05.576Z,34.37
2022-08-23T08:44:54.324Z,33.96
2022-08-23T08:47:33.424Z,33.32
2022-08-23T08:50:02.616Z,32.99
2022-08-23T08:52:36.805Z,33.32
2022-08-23T08:55:22.461Z,32.63
2022-08-23T08:57:49.856Z,32.22
2022-08-23T09:00:23.612Z,32.18
2022-08-23T09:02:51.427Z,31.50
2022-08-23T09:05:24.560Z,31.53
2022-08-23T09:08:09.500Z,32.24
2022-08-23T09:10:50.864Z,31.89
2022-08-23T09:13:41.065Z,31.35
2022-08-23T09:16:31.974Z,31.60
2022-08-23T09:19:01.607Z,30.17
2022-08-23T09:21:31.652Z,30.80
2022-08-23T09:24:00.912Z,30.01
2022-08-23T09:26:30.806Z,29.49
2022-08-23T09:29:25.390Z,30.86
2022-08-23T09:32:06.122Z,29.24
2022-08-23T09:34:32.810Z,28.39
2022-08-23T09:37:09.825Z,29.66
2022-08-23T09:39:39.389Z,28.17
2022-08-23T09:42:27.414Z,28.51
2022-08-23T09:44:54.558Z,27.70
2022-08-23T09:47:31.734Z,28.01
2022-08-23T09:50:08.022Z,28.10
2022-08-23T09:52:37.965Z,26.62
2022-08-23T09:55:09.532Z,26.83
2022-08-23T09:57:37.253Z,26.74
2022-08-23T10:00:16.133Z,28.18
2022-08-23T10:02:42.957Z,26.89
2022-08-23T10:05:15.448Z,26.71
2022-08-23T10:07:45.440Z,26.44
2022-08-23T10:10:43.786Z,27.29
2022-08-23T10:16:49.816Z,27.43
2022-08-23T10:19:28.367Z,27.10
2022-08-23T10:21:57.674Z,25.46
2022-08-23T10:24:54.245Z,25.59
2022-08-23T10:28:21.310Z,26.59
2022-08-23T10:30:56.839Z,25.86
2022-08-23T10:33:46.622Z,26.55
2022-08-23T10:36:25.986Z,25.78
2022-08-23T10:38:58.485Z,24.85
2022-08-23T10:41:51.158Z,25.51
2022-08-23T10:44:24.308Z,23.80
2022-08-23T10:47:05.458Z,24.96
2022-08-23T10:49:36.290Z,23.90
2022-08-23T10:52:05.182Z,23.80
2022-08-23T10:54:59.558Z,24.01
2022-08-23T10:57:35.730Z,24.01
2022-08-23T11:00:05.374Z,26.37
2022-08-23T11:02:42.956Z,23.12
2022-08-23T11:05:29.022Z,23.87
2022-08-23T11:08:06.567Z,23.21
2022-08-23T11:10:41.767Z,23.10
2022-08-23T11:13:27.035Z,22.45
2022-08-23T11:16:07.233Z,23.46
2022-08-23T11:18:33.922Z,22.46
2022-08-23T11:21:07.699Z,22.16
2022-08-23T11:23:41.913Z,22.86
2022-08-23T11:26:36.159Z,21.58
2022-08-23T11:29:05.938Z,22.83
2022-08-23T11:31:37.826Z,21.93
2022-08-23T11:34:29.666Z,22.53
2022-08-23T11:37:22.071Z,23.32
2022-08-23T11:39:58.101Z,22.79
2022-08-23T11:42:40.104Z,24.32
2022-08-23T11:45:27.996Z,23.06
2022-08-23T11:48:19.377Z,23.11
2022-08-23T11:51:06.285Z,22.31
2022-08-23T11:53:49.612Z,22.63
2022-08-23T11:56:33.731Z,22.26
2022-08-23T11:59:00.417Z,20.96
2022-08-23T12:01:36.360Z,21.48
2022-08-23T12:04:10.966Z,21.57
2022-08-23T12:06:43.216Z,21.09
2022-08-23T12:09:20.349Z,20.75
2022-08-23T12:11:55.972Z,21.44
2022-08-23T12:14:31.571Z,21.44
2022-08-23T12:17:04.512Z,21.01
2022-08-23T12:19:40.505Z,21.02
2022-08-23T12:22:14.357Z,21.35
2022-08-23T12:24:52.457Z,21.36
2022-08-23T12:27:45.772Z,21.78
2022-08-23T12:30:22.390Z,21.45
2022-08-23T12:32:54.341Z,20.28
2022-08-23T12:35:48.817Z,21.19
2022-08-23T12:38:24.327Z,20.98
2022-08-23T12:40:54.544Z,19.89
2022-08-23T12:43:23.400Z,19.68
2022-08-23T12:45:56.613Z,20.16
2022-08-23T12:48:26.944Z,20.00
2022-08-23T12:51:08.349Z,20.18
2022-08-23T12:53:44.721Z,20.27
2022-08-23T12:56:19.259Z,20.21
2022-08-23T12:58:52.039Z,19.79
2022-08-23T13:01:30.159Z,19.70
2022-08-23T13:04:04.276Z,19.65
2022-08-23T13:06:36.941Z,19.63
2022-08-23T13:09:17.830Z,19.93
2022-08-23T13:11:46.137Z,19.01
2022-08-23T13:14:31.975Z,19.98
2022-08-23T13:17:21.692Z,20.45
2022-08-23T13:19:51.225Z,19.46
2022-08-23T13:22:26.797Z,19.63
2022-08-23T13:25:26.781Z,19.48
2022-08-23T13:27:47.932Z,18.80
2022-08-23T13:30:14.449Z,19.42
2022-08-23T13:32:41.781Z,19.16
2022-08-23T13:35:36.609Z,19.91
2022-08-23T13:38:21.287Z,19.87
2022-08-23T13:40:56.255Z,19.12
2022-08-23T13:43:31.971Z,18.98
2022-08-23T13:46:09.569Z,18.49
2022-08-23T13:48:37.639Z,18.24
2022-08-23T13:51:25.913Z,19.55
2022-08-23T13:53:55.208Z,18.44
2022-08-23T13:56:22.850Z,18.04
2022-08-23T13:59:02.634Z,19.02
2022-08-23T14:01:29.663Z,17.82
2022-08-23T14:03:56.373Z,18.32
2022-08-23T14:06:25.608Z,17.65
2022-08-23T14:08:52.232Z,18.25
2022-08-23T14:11:19.959Z,18.11
2022-08-23T14:13:48.659Z,18.04
2022-08-23T14:16:40.055Z,18.22
2022-08-23T14:19:19.198Z,18.63
2022-08-23T14:21:56.311Z,18.27
2022-08-23T14:24:22.838Z,17.64
2022-08-23T14:26:52.261Z,17.96
2022-08-23T14:29:22.684Z,18.48
2022-08-23T14:31:51.521Z,18.08
2022-08-23T14:34:18.388Z,17.59
2022-08-23T14:39:31.756Z,17.39
2022-08-23T14:41:58.667Z,17.77
2022-08-23T14:44:28.984Z,17.55
2022-08-23T14:46:58.224Z,17.67
2022-08-23T14:49:24.843Z,18.22
2022-08-23T14:51:51.459Z,18.15
2022-08-23T14:54:22.669Z,18.59
2022-08-23T14:56:49.883Z,17.92
2022-08-23T14:59:19.864Z,18.21
2022-08-23T15:01:48.719Z,18.15
2022-08-23T15:04:23.006Z,18.72
2022-08-23T15:07:16.287Z,18.84
2022-08-23T15:09:36.760Z,18.61
2022-08-23T15:14:50.247Z,18.78
2022-08-23T15:17:16.868Z,18.37
2022-08-23T15:19:44.072Z,18.39
2022-08-23T15:22:15.841Z,18.76
2022-08-23T15:24:47.867Z,18.80
2022-08-23T15:27:14.426Z,18.41
2022-08-23T15:29:40.952Z,18.55
2022-08-23T15:32:07.834Z,18.69
2022-08-23T15:34:37.000Z,18.91
2022-08-23T15:37:06.686Z,18.71
2022-08-23T15:39:36.041Z,18.90
2022-08-23T15:42:02.600Z,18.66
2022-08-23T15:44:29.193Z,18.87
2022-08-23T15:46:58.519Z,18.96
2022-08-23T15:49:29.954Z,18.72
2022-08-23T15:51:58.348Z,18.83
2022-08-23T15:54:24.954Z,18.88
2022-08-23T15:56:53.346Z,19.21
2022-08-23T15:59:21.645Z,19.04
2022-08-23T16:01:50.991Z,18.87
2022-08-23T16:04:18.629Z,18.81
2022-08-23T16:06:48.252Z,18.96
2022-08-23T16:09:21.233Z,19.04
2022-08-23T16:11:48.049Z,19.18
2022-08-23T16:14:17.870Z,18.95
2022-08-23T16:16:46.809Z,19.21
2022-08-23T16:19:16.628Z,19.45
2022-08-23T16:21:46.214Z,19.33
2022-08-23T16:24:12.749Z,19.33
2022-08-23T16:26:42.475Z,19.60
2022-08-23T16:29:17.923Z,20.13
2022-08-23T16:31:45.955Z,19.96
2022-08-23T16:34:21.903Z,20.25
2022-08-23T16:36:55.298Z,20.17
2022-08-23T16:39:22.407Z,20.24
2022-08-23T16:41:52.975Z,20.35
2022-08-23T16:44:19.609Z,20.45
2022-08-23T16:46:46.569Z,20.21
2022-08-23T16:49:16.345Z,20.42
2022-08-23T16:51:43.642Z,20.32
2022-08-23T16:54:10.689Z,20.49
2022-08-23T16:56:39.397Z,20.63
2022-08-23T16:59:08.241Z,20.88
2022-08-23T17:01:46.265Z,20.93
2022-08-23T17:04:12.930Z,20.65
2022-08-23T17:06:39.558Z,20.95
2022-08-23T17:09:06.733Z,20.97
2022-08-23T17:11:33.327Z,20.79
2022-08-23T17:14:05.319Z,21.28
2022-08-23T17:16:32.799Z,21.28
2022-08-23T17:18:59.448Z,21.21
2022-08-23T17:21:26.657Z,21.47
2022-08-23T17:23:53.303Z,21.40
2022-08-23T17:26:20.305Z,21.44
2022-08-23T17:28:46.930Z,21.54
2022-08-23T17:31:14.332Z,21.70
2022-08-23T17:33:41.029Z,21.76
2022-08-23T17:36:08.353Z,21.92
2022-08-23T17:38:35.597Z,21.86
2022-08-23T17:41:02.240Z,21.97
2022-08-23T17:43:29.286Z,22.12
2022-08-23T17:45:56.124Z,22.35
2022-08-23T17:48:22.735Z,22.22
2022-08-23T17:50:50.155Z,22.41
2022-08-23T17:53:18.384Z,22.52
2022-08-23T17:55:45.110Z,22.50
2022-08-23T17:58:13.466Z,23.00
2022-08-23T18:00:40.675Z,22.95
2022-08-23T18:03:07.695Z,22.86
2022-08-23T18:05:37.152Z,22.78
2022-08-23T18:08:04.124Z,23.03
2022-08-23T18:10:31.041Z,23.45
2022-08-23T18:12:58.696Z,23.59
2022-08-23T18:15:27.096Z,23.63
2022-08-23T18:17:57.544Z,23.85
2022-08-23T18:20:26.686Z,24.06
2022-08-23T18:22:54.821Z,24.15
2022-08-23T18:25:21.643Z,24.05
2022-08-23T18:28:06.420Z,24.31
2022-08-23T18:30:35.451Z,24.37
2022-08-23T18:33:02.401Z,24.65
2022-08-23T18:35:30.701Z,24.88
2022-08-23T18:37:57.952Z,24.97
2022-08-23T18:40:26.309Z,24.96
2022-08-23T18:42:53.464Z,24.81
2022-08-23T18:45:20.297Z,25.00
2022-08-23T18:47:48.449Z,25.33
2022-08-23T18:50:18.407Z,24.99
2022-08-23T18:52:45.328Z,25.14
2022-08-23T18:55:11.876Z,25.58
2022-08-23T18:57:39.071Z,25.59
2022-08-23T19:00:08.705Z,25.93
2022-08-23T19:02:35.689Z,25.96
2022-08-23T19:05:03.329Z,25.97
2022-08-23T19:07:30.087Z,26.25
2022-08-23T19:09:56.709Z,26.16
2022-08-23T19:12:23.397Z,26.46
2022-08-23T19:14:50.066Z,26.70
2022-08-23T19:17:16.740Z,26.46
2022-08-23T19:22:40.331Z,26.68
2022-08-23T19:25:07.918Z,27.12
2022-08-23T19:28:11.294Z,25.58
2022-08-23T19:33:14.986Z,27.39
2022-08-23T19:35:42.479Z,27.41
2022-08-23T19:38:18.106Z,27.55
2022-08-23T19:40:44.882Z,27.67
2022-08-23T19:43:11.575Z,27.73
2022-08-23T19:45:39.007Z,28.09
2022-08-23T19:48:05.723Z,29.10
2022-08-23T19:50:33.303Z,28.47
2022-08-23T19:52:59.973Z,29.51
2022-08-23T19:55:27.627Z,29.00
2022-08-23T19:57:55.832Z,29.71
2022-08-23T20:00:23.805Z,31.17
2022-08-23T20:02:50.595Z,29.64
2022-08-23T20:05:18.224Z,29.61
2022-08-23T20:07:45.544Z,30.51
2022-08-23T20:10:13.808Z,30.16
2022-08-23T20:12:41.864Z,32.63
2022-08-23T20:15:13.545Z,29.71
2022-08-23T20:17:41.341Z,31.93
2022-08-23T20:20:10.228Z,32.17
2022-08-23T20:22:55.412Z,31.72
2022-08-23T20:25:22.529Z,30.21
2022-08-23T20:27:49.243Z,31.54
2022-08-23T20:30:15.819Z,31.07
2022-08-23T20:32:43.904Z,30.04
2022-08-23T20:35:11.582Z,30.39
2022-08-23T20:37:41.747Z,33.00
2022-08-23T20:40:12.247Z,30.85
2022-08-23T20:42:39.108Z,32.36
2022-08-23T20:45:11.604Z,31.88
2022-08-23T20:47:40.475Z,31.20
2022-08-23T20:50:07.816Z,32.07
2022-08-23T20:52:34.950Z,32.50
2022-08-23T20:55:01.901Z,31.63
2022-08-23T20:57:36.779Z,31.20
2022-08-23T21:00:05.433Z,28.74
2022-08-23T21:02:32.059Z,31.48
2022-08-23T21:04:58.716Z,32.68
2022-08-23T21:07:25.720Z,32.70
2022-08-23T21:09:54.704Z,32.56
2022-08-23T21:12:21.565Z,32.71
2022-08-23T21:14:48.222Z,32.29
2022-08-23T21:17:14.817Z,32.54
2022-08-23T21:19:44.178Z,32.88
2022-08-23T21:22:10.913Z,32.31
2022-08-23T21:24:38.520Z,33.01
2022-08-23T21:27:09.390Z,32.75
2022-08-23T21:29:36.477Z,32.74
2022-08-23T21:32:03.504Z,32.92
2022-08-23T21:34:30.167Z,33.14
2022-08-23T21:37:06.114Z,32.38
2022-08-23T21:39:32.808Z,32.52
2022-08-23T21:41:59.507Z,32.29
2022-08-23T21:44:29.122Z,32.15
2022-08-23T21:46:55.646Z,33.10
2022-08-23T21:49:23.235Z,33.50
2022-08-23T21:51:50.375Z,32.03
2022-08-23T21:54:18.423Z,32.24
2022-08-23T21:56:46.013Z,32.67
2022-08-23T21:59:14.998Z,33.17
2022-08-23T22:01:42.898Z,33.32
2022-08-23T22:04:11.761Z,33.47
2022-08-23T22:06:38.999Z,33.85
2022-08-23T22:09:09.049Z,33.75
2022-08-23T22:11:40.905Z,33.18
2022-08-23T22:14:09.236Z,34.04
2022-08-23T22:16:35.920Z,34.27
2022-08-23T22:19:02.438Z,34.54
2022-08-23T22:21:28.985Z,34.12
2022-08-23T22:24:02.072Z,33.77
2022-08-23T22:26:29.481Z,33.91
2022-08-23T22:28:56.081Z,33.70
2022-08-23T22:31:23.851Z,34.00
2022-08-23T22:33:50.453Z,33.82
2022-08-23T22:36:19.976Z,33.85
2022-08-23T22:38:47.711Z,34.17
2022-08-23T22:41:20.932Z,33.27
2022-08-23T22:43:47.661Z,34.40
2022-08-23T22:46:14.335Z,33.71
2022-08-23T22:48:40.950Z,33.54
2022-08-23T22:51:16.414Z,33.51
2022-08-23T22:54:04.913Z,32.77
2022-08-23T22:56:36.937Z,33.47
2022-08-23T22:59:03.736Z,33.34
2022-08-23T23:01:34.439Z,33.99
2022-08-23T23:04:03.068Z,34.08
2022-08-23T23:06:30.549Z,33.62
2022-08-23T23:08:57.125Z,34.31
2022-08-23T23:11:24.837Z,34.21
2022-08-23T23:13:51.465Z,34.43
2022-08-23T23:16:21.396Z,34.36
2022-08-23T23:19:08.757Z,34.31
2022-08-23T23:21:39.357Z,31.79
2022-08-23T23:24:05.994Z,34.51
2022-08-23T23:26:32.633Z,34.71
2022-08-23T23:28:59.205Z,34.57
2022-08-23T23:31:25.846Z,35.03
2022-08-23T23:33:52.482Z,34.70
2022-08-23T23:36:19.034Z,35.23
2022-08-23T23:38:46.367Z,34.84
2022-08-23T23:41:13.510Z,35.11
2022-08-23T23:43:40.752Z,34.64
2022-08-23T23:46:11.018Z,34.99
2022-08-23T23:48:38.919Z,35.05
2022-08-23T23:51:16.663Z,34.90
2022-08-23T23:53:43.524Z,35.18
2022-08-23T23:56:12.579Z,35.33
2022-08-23T23:58:39.111Z,35.42
